createdAt,value
2022-11-14T12:15:54.043Z,988.54
2022-11-14T12:16:12.862Z,988.53
2022-11-14T12:16:25.663Z,988.54
2022-11-14T12:16:41.754Z,988.53
2022-11-14T12:16:55.836Z,988.52
2022-11-14T12:17:13.665Z,988.55
2022-11-14T12:17:28.851Z,988.54
2022-11-14T12:17:59.985Z,988.53
2022-11-14T12:18:16.968Z,988.53
2022-11-14T12:18:48.414Z,988.55
2022-11-14T12:19:02.444Z,988.53
2022-11-14T12:19:21.553Z,988.52
2022-11-14T12:19:35.806Z,988.52
2022-11-14T12:19:51.818Z,988.52
2022-11-14T12:20:07.462Z,988.52
2022-11-14T12:20:27.908Z,988.49
2022-11-14T12:20:40.500Z,988.48
2022-11-14T12:20:55.818Z,988.48
2022-11-14T12:21:11.136Z,988.48
2022-11-14T12:21:26.689Z,988.46
2022-11-14T12:22:44.769Z,988.44
2022-11-14T12:23:01.008Z,988.43
2022-11-14T12:23:16.294Z,988.43
2022-11-14T12:23:36.323Z,988.42
2022-11-14T12:23:48.913Z,988.41
2022-11-14T12:24:04.726Z,988.41
2022-11-14T12:24:35.280Z,988.4
2022-11-14T12:25:07.736Z,988.41
2022-11-14T12:25:28.227Z,988.39
2022-11-14T12:25:40.955Z,988.39
2022-11-14T12:25:58.138Z,988.38
2022-11-14T12:26:29.168Z,988.39
2022-11-14T12:26:44.075Z,988.39
2022-11-14T12:26:58.979Z,988.38
2022-11-14T12:27:16.260Z,988.38
2022-11-14T12:27:32.645Z,988.37
2022-11-14T12:27:50.416Z,988.37
2022-11-14T12:28:07.412Z,988.36
2022-11-14T12:28:22.801Z,988.35
2022-11-14T12:28:39.231Z,988.32
2022-11-14T12:28:55.396Z,988.32
2022-11-14T12:29:08.253Z,988.31
2022-11-14T12:29:25.366Z,988.31
2022-11-14T12:29:40.242Z,988.3
2022-11-14T12:30:00.343Z,988.29
2022-11-14T12:30:28.800Z,988.28
2022-11-14T12:30:47.218Z,988.29
2022-11-14T12:31:00.220Z,988.29
2022-11-14T12:31:17.028Z,988.28
2022-11-14T12:31:49.190Z,988.26
2022-11-14T12:32:05.314Z,988.25
2022-11-14T12:32:36.916Z,988.25
2022-11-14T12:33:40.727Z,988.25
2022-11-14T12:33:58.212Z,988.25
2022-11-14T12:34:30.299Z,988.22
2022-11-14T12:34:43.793Z,988.22
2022-11-14T12:34:59.660Z,988.22
2022-11-14T12:35:15.685Z,988.22
2022-11-14T12:35:34.396Z,988.22
2022-11-14T12:37:27.776Z,988.19
2022-11-14T12:37:59.149Z,988.19
2022-11-14T12:38:12.704Z,988.19
2022-11-14T12:38:28.111Z,988.2
2022-11-14T12:38:49.006Z,988.19
2022-11-14T12:39:02.264Z,988.2
2022-11-14T12:39:16.740Z,988.21
2022-11-14T12:39:32.860Z,988.21
2022-11-14T12:39:48.060Z,988.21
2022-11-14T12:40:05.942Z,988.2
2022-11-14T12:40:20.060Z,988.2
2022-11-14T12:40:38.620Z,988.21
2022-11-14T12:40:52.200Z,988.21
2022-11-14T12:41:26.566Z,988.22
2022-11-14T12:41:42.173Z,988.22
2022-11-14T12:41:57.022Z,988.22
2022-11-14T12:42:15.708Z,988.22
2022-11-14T12:42:33.720Z,988.23
2022-11-14T12:42:51.275Z,988.24
2022-11-14T12:43:10.763Z,988.24
2022-11-14T12:43:23.820Z,988.25
2022-11-14T12:43:40.181Z,988.26
2022-11-14T12:43:53.259Z,988.26
2022-11-14T12:44:10.654Z,988.28
2022-11-14T12:44:31.065Z,988.28
2022-11-14T12:44:47.619Z,988.3
2022-11-14T12:45:03.035Z,988.31
2022-11-14T12:45:18.781Z,988.31
2022-11-14T12:45:39.366Z,988.31
2022-11-14T12:45:52.908Z,988.32
2022-11-14T12:46:08.037Z,988.31
2022-11-14T12:46:22.538Z,988.31
2022-11-14T12:46:42.109Z,988.32
2022-11-14T12:46:55.572Z,988.33
2022-11-14T12:47:14.587Z,988.33
2022-11-14T12:47:31.487Z,988.32
2022-11-14T12:47:44.780Z,988.32
2022-11-14T12:48:04.255Z,988.31
2022-11-14T12:48:16.281Z,988.31
2022-11-14T12:48:30.745Z,988.31
2022-11-14T12:48:48.208Z,988.31
2022-11-14T12:49:04.808Z,988.31
2022-11-14T12:49:19.171Z,988.3
2022-11-14T12:49:35.555Z,988.3
2022-11-14T12:49:56.375Z,988.29
2022-11-14T12:50:09.910Z,988.28
2022-11-14T12:50:26.022Z,988.27
2022-11-14T12:50:38.350Z,988.26
2022-11-14T12:50:56.994Z,988.25
2022-11-14T12:51:10.984Z,988.26
2022-11-14T12:51:30.405Z,988.27
2022-11-14T12:51:44.760Z,988.27
2022-11-14T12:52:03.008Z,988.26
2022-11-14T12:52:46.875Z,988.26
2022-11-14T12:53:01.750Z,988.25
2022-11-14T12:53:21.587Z,988.25
2022-11-14T12:53:35.544Z,988.23
2022-11-14T12:53:53.507Z,988.22
2022-11-14T12:54:22.904Z,988.2
2022-11-14T12:54:38.455Z,988.21
2022-11-14T12:54:57.756Z,988.2
2022-11-14T12:55:10.834Z,988.21
2022-11-14T12:55:26.606Z,988.2
2022-11-14T12:55:44.907Z,988.18
2022-11-14T12:55:59.824Z,988.19
2022-11-14T12:56:34.093Z,988.19
2022-11-14T12:56:51.206Z,988.18
2022-11-14T12:57:05.526Z,988.19
2022-11-14T12:57:23.450Z,988.19
2022-11-14T12:57:37.674Z,988.2
2022-11-14T12:57:49.920Z,988.21
2022-11-14T12:58:25.653Z,988.21
2022-11-14T12:58:39.108Z,988.21
2022-11-14T12:58:59.705Z,988.2
2022-11-14T12:59:13.094Z,988.2
2022-11-14T12:59:26.751Z,988.22
2022-11-14T12:59:44.427Z,988.22
2022-11-14T12:59:59.132Z,988.22
2022-11-14T13:00:15.535Z,988.22
2022-11-14T13:00:31.097Z,988.23
2022-11-14T13:00:46.580Z,988.24
2022-11-14T13:01:24.017Z,988.25
2022-11-14T13:01:42.875Z,988.24
2022-11-14T13:01:58.495Z,988.23
2022-11-14T13:02:22.228Z,988.23
2022-11-14T13:02:33.321Z,988.22
2022-11-14T13:02:51.821Z,988.23
2022-11-14T13:03:07.690Z,988.23
2022-11-14T13:03:21.157Z,988.23
2022-11-14T13:03:34.310Z,988.23
2022-11-14T13:03:51.251Z,988.23
2022-11-14T13:04:07.133Z,988.23
2022-11-14T13:04:22.054Z,988.21
2022-11-14T13:04:39.093Z,988.22
2022-11-14T13:04:54.714Z,988.21
2022-11-14T13:05:10.786Z,988.21
2022-11-14T13:05:25.908Z,988.2
2022-11-14T13:05:47.725Z,988.2
2022-11-14T13:06:02.361Z,988.2
2022-11-14T13:06:17.021Z,988.19
2022-11-14T13:06:31.634Z,988.19
2022-11-14T13:06:47.939Z,988.19
2022-11-14T13:07:02.624Z,988.18
2022-11-14T13:07:19.184Z,988.18
2022-11-14T13:07:34.993Z,988.19
2022-11-14T13:07:52.375Z,988.18
2022-11-14T13:08:09.060Z,988.2
2022-11-14T13:08:23.705Z,988.2
2022-11-14T13:09:32.006Z,988.17
2022-11-14T13:10:00.481Z,988.16
2022-11-14T13:10:17.007Z,988.16
2022-11-14T13:10:30.690Z,988.15
2022-11-14T13:10:45.740Z,988.17
2022-11-14T13:11:03.145Z,988.16
2022-11-14T13:11:21.575Z,988.15
2022-11-14T13:11:35.456Z,988.15
2022-11-14T13:11:50.219Z,988.14
2022-11-14T13:12:07.328Z,988.15
2022-11-14T13:12:22.924Z,988.14
2022-11-14T13:12:43.869Z,988.13
2022-11-14T13:12:56.558Z,988.13
2022-11-14T13:13:12.249Z,988.13
2022-11-14T13:13:29.369Z,988.11
2022-11-14T13:13:42.854Z,988.11
2022-11-14T13:14:14.481Z,988.09
2022-11-14T13:14:35.180Z,988.09
2022-11-14T13:14:49.105Z,988.06
2022-11-14T13:15:07.308Z,988.06
2022-11-14T13:15:23.340Z,988.06
2022-11-14T13:15:35.917Z,988.06
2022-11-14T13:16:08.483Z,988.04
2022-11-14T13:16:40.426Z,988.03
2022-11-14T13:17:15.314Z,988.03
2022-11-14T13:17:31.770Z,988.03
2022-11-14T13:17:48.167Z,988.04
2022-11-14T13:18:00.225Z,988.04
2022-11-14T13:18:16.402Z,988.04
2022-11-14T13:18:29.943Z,988.02
2022-11-14T13:18:49.784Z,988.04
2022-11-14T13:19:02.266Z,988.04
2022-11-14T13:19:23.188Z,988.03
2022-11-14T13:19:36.902Z,988.03
2022-11-14T13:19:52.335Z,988.03
2022-11-14T13:20:24.069Z,988.03
2022-11-14T13:20:44.150Z,988.02
2022-11-14T13:20:58.542Z,988.01
2022-11-14T13:21:26.647Z,988.02
2022-11-14T13:21:45.632Z,988.01
2022-11-14T13:22:02.899Z,988.01
2022-11-14T13:22:18.587Z,988
2022-11-14T13:22:48.421Z,988.03
2022-11-14T13:23:04.079Z,988.02
2022-11-14T13:23:17.766Z,988.02
2022-11-14T13:23:35.208Z,988.03
2022-11-14T13:23:50.190Z,988.02
2022-11-14T13:24:26.179Z,988.04
2022-11-14T13:24:39.833Z,988.04
2022-11-14T13:24:54.845Z,988.04
2022-11-14T13:25:12.041Z,988.04
2022-11-14T13:25:27.120Z,988.04
2022-11-14T13:25:45.456Z,988.04
2022-11-14T13:26:02.106Z,988.04
2022-11-14T13:26:19.281Z,988.06
2022-11-14T13:26:34.338Z,988.05
2022-11-14T13:26:50.574Z,988.04
2022-11-14T13:27:05.213Z,988.04
2022-11-14T13:27:18.279Z,988.03
2022-11-14T13:28:00.382Z,988.03
2022-11-14T13:28:06.922Z,988.03
2022-11-14T13:28:12.797Z,988.02
2022-11-14T13:28:25.142Z,988.01
2022-11-14T13:28:40.568Z,988.03
2022-11-14T13:28:58.945Z,988.03
2022-11-14T13:29:13.149Z,988.02
2022-11-14T13:29:27.896Z,988.03
2022-11-14T13:29:44.975Z,988.04
2022-11-14T13:30:03.548Z,988.05
2022-11-14T13:30:17.432Z,988.05
2022-11-14T13:30:30.957Z,988.05
2022-11-14T13:30:51.005Z,988.05
2022-11-14T13:31:07.405Z,988.04
2022-11-14T13:31:20.634Z,988.04
2022-11-14T13:31:36.681Z,988.05
2022-11-14T13:32:09.437Z,988.06
2022-11-14T13:32:27.036Z,988.05
2022-11-14T13:32:42.630Z,988.05
2022-11-14T13:32:55.663Z,988.06
2022-11-14T13:33:15.621Z,988.07
2022-11-14T13:33:31.078Z,988.07
2022-11-14T13:33:48.108Z,988.09
2022-11-14T13:34:04.905Z,988.09
2022-11-14T13:34:18.314Z,988.08
2022-11-14T13:34:31.580Z,988.08
2022-11-14T13:34:47.896Z,988.08
2022-11-14T13:35:02.844Z,988.08
2022-11-14T13:35:22.895Z,988.08
2022-11-14T13:35:51.633Z,988.07
2022-11-14T13:36:06.785Z,988.07
2022-11-14T13:36:27.642Z,988.07
2022-11-14T13:36:41.022Z,988.07
2022-11-14T13:36:56.339Z,988.07
2022-11-14T13:37:11.540Z,988.07
2022-11-14T13:37:32.370Z,988.06
2022-11-14T13:37:46.626Z,988.06
2022-11-14T13:38:02.672Z,988.06
2022-11-14T13:38:17.646Z,988.07
2022-11-14T13:38:50.531Z,988.07
2022-11-14T13:39:04.405Z,988.08
2022-11-14T13:39:19.950Z,988.08
2022-11-14T13:39:37.616Z,988.09
2022-11-14T13:39:49.648Z,988.08
2022-11-14T13:40:07.860Z,988.1
2022-11-14T13:40:22.487Z,988.09
2022-11-14T13:40:54.566Z,988.07
2022-11-14T13:41:17.151Z,988.09
2022-11-14T13:41:46.509Z,988.08
2022-11-14T13:41:48.079Z,988.08
2022-11-14T13:42:01.019Z,988.08
2022-11-14T13:42:16.041Z,988.07
2022-11-14T13:42:35.452Z,988.07
2022-11-14T13:42:49.448Z,988.08
2022-11-14T13:43:03.211Z,988.08
2022-11-14T13:43:51.026Z,988.04
2022-11-14T13:44:09.985Z,988.05
2022-11-14T13:44:25.508Z,988.04
2022-11-14T13:44:44.515Z,988.04
2022-11-14T13:45:10.229Z,988.03
2022-11-14T13:45:28.210Z,988.02
2022-11-14T13:45:43.963Z,988.01
2022-11-14T13:45:59.376Z,988.01
2022-11-14T13:46:16.937Z,988.02
2022-11-14T13:46:34.428Z,988.02
2022-11-14T13:46:47.004Z,988.02
2022-11-14T13:47:06.491Z,988.01
2022-11-14T13:47:18.916Z,988.01
2022-11-14T13:47:33.416Z,988.02
2022-11-14T13:47:54.871Z,988.03
2022-11-14T13:48:09.444Z,988.03
2022-11-14T13:48:47.209Z,988.06
2022-11-14T13:49:10.540Z,988.1
2022-11-14T13:49:27.645Z,988.09
2022-11-14T13:50:15.414Z,988.09
2022-11-14T13:50:29.804Z,988.1
2022-11-14T13:50:50.846Z,988.08
2022-11-14T13:51:29.007Z,988.06
2022-11-14T13:51:42.132Z,988.07
2022-11-14T13:51:54.757Z,988.04
2022-11-14T13:52:12.207Z,988.03
2022-11-14T13:52:26.344Z,988.02
2022-11-14T13:52:39.646Z,988.02
2022-11-14T13:52:54.144Z,988.01
2022-11-14T13:53:12.492Z,988.02
2022-11-14T13:53:26.047Z,988.01
2022-11-14T13:53:47.446Z,988.02
2022-11-14T13:54:18.283Z,988.02
2022-11-14T13:54:31.972Z,988.03
2022-11-14T13:54:48.676Z,988.03
2022-11-14T13:55:05.533Z,988.03
2022-11-14T13:55:24.010Z,988.02
2022-11-14T13:56:07.666Z,988.04
2022-11-14T13:56:24.356Z,988.03
2022-11-14T13:56:39.585Z,988.04
2022-11-14T13:56:59.983Z,988.04
2022-11-14T13:57:12.246Z,988.05
2022-11-14T13:57:27.252Z,988.05
2022-11-14T13:58:16.483Z,988.03
2022-11-14T13:58:46.301Z,988.03
2022-11-14T13:59:04.287Z,988.04
2022-11-14T13:59:23.125Z,988.04
2022-11-14T13:59:39.346Z,988.05
2022-11-14T13:59:55.261Z,988.04
2022-11-14T14:00:16.793Z,988.04
2022-11-14T14:00:40.105Z,988.05
2022-11-14T14:00:55.148Z,988.03
2022-11-14T14:01:12.838Z,988.02
2022-11-14T14:01:27.662Z,988.04
2022-11-14T14:01:42.081Z,988.02
2022-11-14T14:02:17.886Z,988.01
2022-11-14T14:02:35.185Z,988
2022-11-14T14:03:04.428Z,987.99
2022-11-14T14:03:36.896Z,987.96
2022-11-14T14:04:08.570Z,987.94
2022-11-14T14:04:23.200Z,987.94
2022-11-14T14:04:41.977Z,987.95
2022-11-14T14:05:13.601Z,987.95
2022-11-14T14:05:27.690Z,987.95
2022-11-14T14:06:05.385Z,987.97
2022-11-14T14:06:35.047Z,987.98
2022-11-14T14:06:49.678Z,987.99
2022-11-14T14:07:05.064Z,987.98
2022-11-14T14:07:19.328Z,987.99
2022-11-14T14:07:52.427Z,988
2022-11-14T14:08:42.901Z,988.01
2022-11-14T14:09:14.265Z,988
2022-11-14T14:09:28.816Z,988.01
2022-11-14T14:09:58.385Z,988.02
2022-11-14T14:10:16.016Z,988.02
2022-11-14T14:10:30.283Z,988.02
2022-11-14T14:10:52.178Z,988.03
2022-11-14T14:11:23.389Z,988.06
2022-11-14T14:11:52.203Z,988.05
2022-11-14T14:12:09.455Z,988.03
2022-11-14T14:12:39.850Z,988.03
2022-11-14T14:12:59.307Z,988.04
2022-11-14T14:13:31.986Z,988.01
2022-11-14T14:13:44.146Z,988.01
2022-11-14T14:14:19.472Z,988
2022-11-14T14:14:32.166Z,988
2022-11-14T14:14:49.333Z,988
2022-11-14T14:15:06.891Z,987.99
2022-11-14T14:15:20.125Z,987.99
2022-11-14T14:15:40.609Z,987.98
2022-11-14T14:16:09.840Z,988.01
2022-11-14T14:16:40.185Z,988.01
2022-11-14T14:17:28.953Z,988.03
2022-11-14T14:17:42.107Z,988.03
2022-11-14T14:17:59.536Z,988.04
2022-11-14T14:18:18.924Z,988.05
2022-11-14T14:18:46.256Z,988.04
2022-11-14T14:19:07.591Z,988.07
2022-11-14T14:19:25.761Z,988.06
2022-11-14T14:19:40.872Z,988.07
2022-11-14T14:19:55.685Z,988.07
2022-11-14T14:20:10.044Z,988.06
2022-11-14T14:20:23.345Z,988.07
2022-11-14T14:20:38.467Z,988.07
2022-11-14T14:21:00.419Z,988.09
2022-11-14T14:21:27.676Z,988.09
2022-11-14T14:21:42.078Z,988.09
2022-11-14T14:22:14.099Z,988.09
2022-11-14T14:22:36.886Z,988.09
2022-11-14T14:23:05.158Z,988.1
2022-11-14T14:23:18.907Z,988.1
2022-11-14T14:23:33.470Z,988.1
2022-11-14T14:23:52.485Z,988.11
2022-11-14T14:24:05.684Z,988.11
2022-11-14T14:24:23.386Z,988.1
2022-11-14T14:24:37.659Z,988.11
2022-11-14T14:24:58.051Z,988.11
2022-11-14T14:25:25.467Z,988.12
2022-11-14T14:25:44.400Z,988.14
2022-11-14T14:26:04.992Z,988.15
2022-11-14T14:26:31.223Z,988.13
2022-11-14T14:26:50.046Z,988.13
2022-11-14T14:27:02.770Z,988.13
2022-11-14T14:27:19.885Z,988.12
2022-11-14T14:27:34.656Z,988.11
2022-11-14T14:28:10.607Z,988.1
2022-11-14T14:28:24.326Z,988.1
2022-11-14T14:28:39.345Z,988.11
2022-11-14T14:28:54.626Z,988.09
2022-11-14T14:29:10.973Z,988.1
2022-11-14T14:29:28.763Z,988.11
2022-11-14T14:29:47.567Z,988.1
2022-11-14T14:29:59.717Z,988.1
2022-11-14T14:30:14.810Z,988.11
2022-11-14T14:30:30.086Z,988.12
2022-11-14T14:30:52.232Z,988.13
2022-11-14T14:31:04.678Z,988.14
2022-11-14T14:31:17.825Z,988.16
2022-11-14T14:31:35.612Z,988.14
2022-11-14T14:31:50.441Z,988.15
2022-11-14T14:32:09.757Z,988.16
2022-11-14T14:32:24.039Z,988.17
2022-11-14T14:32:54.465Z,988.19
2022-11-14T14:33:11.387Z,988.19
2022-11-14T14:33:28.629Z,988.19
2022-11-14T14:33:41.422Z,988.19
2022-11-14T14:34:13.742Z,988.18
2022-11-14T14:34:49.582Z,988.17
2022-11-14T14:35:02.977Z,988.18
2022-11-14T14:35:40.589Z,988.16
2022-11-14T14:36:10.497Z,988.16
2022-11-14T14:36:38.806Z,988.15
2022-11-14T14:36:55.143Z,988.15
2022-11-14T14:37:12.821Z,988.14
2022-11-14T14:37:30.641Z,988.14
2022-11-14T14:37:45.936Z,988.14
2022-11-14T14:38:00.087Z,988.13
2022-11-14T14:38:18.526Z,988.13
2022-11-14T14:38:34.430Z,988.13
2022-11-14T14:39:01.102Z,988.12
2022-11-14T14:39:18.444Z,988.12
2022-11-14T14:39:37.180Z,988.1
2022-11-14T14:39:53.227Z,988.11
2022-11-14T14:41:00.786Z,988.08
2022-11-14T14:41:13.708Z,988.08
2022-11-14T14:41:42.390Z,988.07
2022-11-14T14:42:00.220Z,988.07
2022-11-14T14:42:33.746Z,988.07
2022-11-14T14:42:49.802Z,988.07
2022-11-14T14:43:02.535Z,988.06
2022-11-14T14:43:34.707Z,988.07
2022-11-14T14:44:07.752Z,988.07
2022-11-14T14:44:41.340Z,988.07
2022-11-14T14:44:54.102Z,988.07
2022-11-14T14:45:11.109Z,988.08
2022-11-14T14:45:32.592Z,988.08
2022-11-14T14:45:47.734Z,988.08
2022-11-14T14:46:00.397Z,988.08
2022-11-14T14:46:20.502Z,988.09
2022-11-14T14:46:34.333Z,988.09
2022-11-14T14:46:48.567Z,988.1
2022-11-14T14:47:06.486Z,988.1
2022-11-14T14:47:50.061Z,988.11
2022-11-14T14:48:07.328Z,988.12
2022-11-14T14:48:22.250Z,988.12
2022-11-14T14:48:44.454Z,988.13
2022-11-14T14:49:14.219Z,988.13
2022-11-14T14:49:29.596Z,988.13
2022-11-14T14:49:46.116Z,988.12
2022-11-14T14:50:13.690Z,988.12
2022-11-14T14:50:50.911Z,988.12
2022-11-14T14:51:06.927Z,988.12
2022-11-14T14:51:54.407Z,988.12
2022-11-14T14:52:12.721Z,988.13
2022-11-14T14:52:26.113Z,988.12
2022-11-14T14:52:42.510Z,988.12
2022-11-14T14:52:54.518Z,988.12
2022-11-14T14:53:16.586Z,988.12
2022-11-14T14:53:30.935Z,988.12
2022-11-14T14:54:14.534Z,988.11
2022-11-14T14:54:30.507Z,988.11
2022-11-14T14:54:46.626Z,988.12
2022-11-14T14:55:06.275Z,988.1
2022-11-14T14:55:24.001Z,988.11
2022-11-14T14:56:08.385Z,988.1
2022-11-14T14:56:22.936Z,988.09
2022-11-14T14:56:43.844Z,988.08
2022-11-14T14:57:13.334Z,988.09
2022-11-14T14:57:45.373Z,988.07
2022-11-14T14:58:01.957Z,988.06
2022-11-14T14:58:29.743Z,988.05
2022-11-14T14:58:46.808Z,988.05
2022-11-14T14:59:06.781Z,988.04
2022-11-14T14:59:21.654Z,988.05
2022-11-14T14:59:38.538Z,988.05
2022-11-14T14:59:53.596Z,988.04
2022-11-14T15:00:23.704Z,988.04
2022-11-14T15:00:41.867Z,988.04
2022-11-14T15:01:00.481Z,988.03
2022-11-14T15:01:25.546Z,988.03
2022-11-14T15:01:43.768Z,988.04
2022-11-14T15:01:58.186Z,988.03
2022-11-14T15:02:15.634Z,988.03
2022-11-14T15:02:30.210Z,988.02
2022-11-14T15:02:53.045Z,988.03
2022-11-14T15:03:07.522Z,988.04
2022-11-14T15:03:31.687Z,988.05
2022-11-14T15:03:44.240Z,988.04
2022-11-14T15:04:12.947Z,988.05
2022-11-14T15:04:26.354Z,988.04
2022-11-14T15:04:44.035Z,988.05
2022-11-14T15:04:59.682Z,988.05
2022-11-14T15:05:21.202Z,988.05
2022-11-14T15:05:46.526Z,988.05
2022-11-14T15:06:05.105Z,988.05
2022-11-14T15:06:23.192Z,988.05
2022-11-14T15:06:36.026Z,988.06
2022-11-14T15:06:50.970Z,988.06
2022-11-14T15:07:09.225Z,988.05
2022-11-14T15:07:58.957Z,988.06
2022-11-14T15:08:15.726Z,988.06
2022-11-14T15:08:31.976Z,988.06
2022-11-14T15:08:45.521Z,988.04
2022-11-14T15:09:00.621Z,988.05
2022-11-14T15:09:19.683Z,988.04
2022-11-14T15:09:37.310Z,988.06
2022-11-14T15:09:50.284Z,988.05
2022-11-14T15:10:08.920Z,988.04
2022-11-14T15:10:22.815Z,988.04
2022-11-14T15:10:51.820Z,988.05
2022-11-14T15:11:12.175Z,988.06
2022-11-14T15:11:32.269Z,988.05
2022-11-14T15:11:41.942Z,988.04
2022-11-14T15:11:56.416Z,988.04
2022-11-14T15:12:15.158Z,988.04
2022-11-14T15:12:28.449Z,988.03
2022-11-14T15:12:43.021Z,988.03
2022-11-14T15:13:00.476Z,988.03
2022-11-14T15:13:15.331Z,988.03
2022-11-14T15:13:32.386Z,988.04
2022-11-14T15:13:47.879Z,988.03
2022-11-14T15:14:02.746Z,988.03
2022-11-14T15:14:20.033Z,988.04
2022-11-14T15:14:38.158Z,988.03
2022-11-14T15:14:56.246Z,988.04
2022-11-14T15:15:10.891Z,988.03
2022-11-14T15:15:24.473Z,988.02
2022-11-14T15:15:39.692Z,988.02
2022-11-14T15:15:56.047Z,988.04
2022-11-14T15:16:13.193Z,988.04
2022-11-14T15:16:26.667Z,988.03
2022-11-14T15:16:44.009Z,988.01
2022-11-14T15:17:16.536Z,988.04
2022-11-14T15:17:36.484Z,988.04
2022-11-14T15:17:48.248Z,988.03
2022-11-14T15:18:24.814Z,988.03
2022-11-14T15:18:38.598Z,988.03
2022-11-14T15:19:07.314Z,988.04
2022-11-14T15:19:24.569Z,988.05
2022-11-14T15:19:44.116Z,988.05
2022-11-14T15:19:57.509Z,988.06
2022-11-14T15:20:30.385Z,988.04
2022-11-14T15:20:48.155Z,988.06
2022-11-14T15:21:02.211Z,988.04
2022-11-14T15:21:31.597Z,988.04
2022-11-14T15:21:51.368Z,988.04
2022-11-14T15:22:08.897Z,988.03
2022-11-14T15:22:23.815Z,988.04
2022-11-14T15:22:46.388Z,988.05
2022-11-14T15:23:13.442Z,988.03
2022-11-14T15:23:33.367Z,988.02
2022-11-14T15:23:45.720Z,988.02
2022-11-14T15:24:02.586Z,988.01
2022-11-14T15:24:15.042Z,988.01
2022-11-14T15:24:35.811Z,988
2022-11-14T15:24:50.223Z,988
2022-11-14T15:25:08.059Z,988
2022-11-14T15:25:19.940Z,988
2022-11-14T15:25:40.405Z,988
2022-11-14T15:25:56.494Z,987.99
2022-11-14T15:26:09.927Z,987.98
2022-11-14T15:26:27.439Z,987.98
2022-11-14T15:26:57.505Z,987.97
2022-11-14T15:27:15.542Z,987.98
2022-11-14T15:27:29.126Z,987.99
2022-11-14T15:27:43.535Z,987.99
2022-11-14T15:28:01.765Z,987.99
2022-11-14T15:28:19.906Z,987.98
2022-11-14T15:28:32.559Z,987.99
2022-11-14T15:28:52.556Z,987.97
2022-11-14T15:29:09.074Z,987.98
2022-11-14T15:29:41.541Z,987.98
2022-11-14T15:30:08.142Z,987.97
2022-11-14T15:30:25.173Z,987.95
2022-11-14T15:30:42.064Z,987.95
2022-11-14T15:30:57.083Z,987.94
2022-11-14T15:31:11.781Z,987.94
2022-11-14T15:31:29.035Z,987.94
2022-11-14T15:31:44.577Z,987.94
2022-11-14T15:32:01.914Z,987.94
2022-11-14T15:32:16.064Z,987.95
2022-11-14T15:32:31.647Z,987.94
2022-11-14T15:32:53.871Z,987.93
2022-11-14T15:33:07.859Z,987.94
2022-11-14T15:33:21.348Z,987.94
2022-11-14T15:33:40.431Z,987.95
2022-11-14T15:33:52.528Z,987.95
2022-11-14T15:34:10.942Z,987.95
2022-11-14T15:34:25.741Z,987.95
2022-11-14T15:34:43.361Z,987.95
2022-11-14T15:35:02.871Z,987.95
2022-11-14T15:35:20.191Z,987.95
2022-11-14T15:35:30.394Z,987.94
2022-11-14T15:35:45.070Z,987.94
2022-11-14T15:36:00.187Z,987.94
2022-11-14T15:36:32.367Z,987.93
2022-11-14T15:36:50.143Z,987.92
2022-11-14T15:37:07.500Z,987.91
2022-11-14T15:37:40.721Z,987.9
2022-11-14T15:37:55.484Z,987.91
2022-11-14T15:38:36.935Z,987.91
2022-11-14T15:38:43.077Z,987.89
2022-11-14T15:38:58.080Z,987.88
2022-11-14T15:39:28.434Z,987.89
2022-11-14T15:39:50.911Z,987.88
2022-11-14T15:40:04.386Z,987.87
2022-11-14T15:40:17.696Z,987.87
2022-11-14T15:40:39.321Z,987.88
2022-11-14T15:40:50.408Z,987.87
2022-11-14T15:41:10.940Z,987.89
2022-11-14T15:41:25.927Z,987.89
2022-11-14T15:41:41.264Z,987.89
2022-11-14T15:41:54.831Z,987.9
2022-11-14T15:42:11.014Z,987.89
2022-11-14T15:42:24.218Z,987.88
2022-11-14T15:42:42.146Z,987.89
2022-11-14T15:43:11.444Z,987.89
2022-11-14T15:43:28.477Z,987.89
2022-11-14T15:43:44.031Z,987.89
2022-11-14T15:44:06.129Z,987.89
2022-11-14T15:44:20.951Z,987.91
2022-11-14T15:45:09.080Z,987.91
2022-11-14T15:45:22.252Z,987.89
2022-11-14T15:46:19.580Z,987.93
2022-11-14T15:46:33.284Z,987.91
2022-11-14T15:46:48.605Z,987.93
2022-11-14T15:47:24.033Z,987.95
2022-11-14T15:47:37.173Z,987.95
2022-11-14T15:47:57.320Z,987.95
2022-11-14T15:48:09.527Z,987.97
2022-11-14T15:48:26.354Z,987.97
2022-11-14T15:48:41.335Z,987.97
2022-11-14T15:49:36.279Z,987.97
2022-11-14T15:50:04.464Z,987.99
2022-11-14T15:50:18.869Z,987.99
2022-11-14T15:50:33.027Z,987.98
2022-11-14T15:50:49.856Z,987.99
2022-11-14T15:51:05.597Z,987.99
2022-11-14T15:51:25.476Z,987.99
2022-11-14T15:51:54.947Z,987.98
2022-11-14T15:52:10.041Z,987.98
2022-11-14T15:52:27.074Z,987.98
2022-11-14T15:52:45.930Z,987.98
2022-11-14T15:53:03.443Z,987.98
2022-11-14T15:53:16.756Z,987.98
2022-11-14T15:53:33.506Z,987.97
2022-11-14T15:53:51.747Z,987.98
2022-11-14T15:54:06.251Z,987.96
2022-11-14T15:54:18.885Z,987.97
2022-11-14T15:54:33.964Z,987.98
2022-11-14T15:54:51.531Z,987.97
2022-11-14T15:55:08.290Z,987.98
2022-11-14T15:55:23.058Z,987.97
2022-11-14T15:55:42.844Z,987.97
2022-11-14T15:55:57.854Z,987.96
2022-11-14T15:56:10.468Z,987.97
2022-11-14T15:56:29.369Z,987.98
2022-11-14T15:56:57.826Z,987.98
2022-11-14T15:57:30.165Z,987.99
2022-11-14T15:57:51.997Z,988
2022-11-14T15:58:27.230Z,988
2022-11-14T15:58:28.387Z,987.99
2022-11-14T15:58:36.836Z,988
2022-11-14T15:58:52.063Z,988.01
2022-11-14T15:59:06.988Z,988.02
2022-11-14T15:59:55.874Z,988
2022-11-14T16:00:25.463Z,988.01
2022-11-14T16:00:43.779Z,988.01
2022-11-14T16:00:57.745Z,988.01
2022-11-14T16:01:13.011Z,988.02
2022-11-14T16:01:30.397Z,988
2022-11-14T16:02:05.887Z,988
2022-11-14T16:02:20.647Z,987.99
2022-11-14T16:02:49.523Z,987.97
2022-11-14T16:03:07.919Z,987.97
2022-11-14T16:03:21.362Z,987.99
2022-11-14T16:03:54.212Z,987.96
2022-11-14T16:04:08.921Z,987.96
2022-11-14T16:04:30.051Z,987.95
2022-11-14T16:04:47.337Z,987.94
2022-11-14T16:05:18.210Z,987.94
2022-11-14T16:05:30.602Z,987.93
2022-11-14T16:05:50.848Z,987.93
2022-11-14T16:06:04.006Z,987.94
2022-11-14T16:06:21.543Z,987.93
2022-11-14T16:06:34.363Z,987.92
2022-11-14T16:06:52.960Z,987.92
2022-11-14T16:07:07.244Z,987.92
2022-11-14T16:07:25.778Z,987.91
2022-11-14T16:07:38.590Z,987.91
2022-11-14T16:08:10.852Z,987.9
2022-11-14T16:08:26.787Z,987.9
2022-11-14T16:08:41.259Z,987.9
2022-11-14T16:09:00.518Z,987.89
2022-11-14T16:09:15.783Z,987.89
2022-11-14T16:09:28.704Z,987.89
2022-11-14T16:09:48.794Z,987.88
2022-11-14T16:10:01.400Z,987.88
2022-11-14T16:10:22.026Z,987.87
2022-11-14T16:10:35.024Z,987.86
2022-11-14T16:11:07.475Z,987.86
2022-11-14T16:11:37.704Z,987.87
2022-11-14T16:11:52.627Z,987.86
2022-11-14T16:12:10.080Z,987.86
2022-11-14T16:12:28.733Z,987.85
2022-11-14T16:12:44.075Z,987.85
2022-11-14T16:13:02.728Z,987.85
2022-11-14T16:13:37.903Z,987.85
2022-11-14T16:13:55.199Z,987.84
2022-11-14T16:14:07.056Z,987.83
2022-11-14T16:14:21.917Z,987.83
2022-11-14T16:14:39.080Z,987.84
2022-11-14T16:15:11.579Z,987.85
2022-11-14T16:16:02.895Z,987.83
2022-11-14T16:16:19.351Z,987.83
2022-11-14T16:16:37.595Z,987.84
2022-11-14T16:16:53.499Z,987.84
2022-11-14T16:17:10.396Z,987.84
2022-11-14T16:17:40.371Z,987.87
2022-11-14T16:17:55.243Z,987.89
2022-11-14T16:18:13.505Z,987.89
2022-11-14T16:18:27.666Z,987.91
2022-11-14T16:18:44.857Z,987.92
2022-11-14T16:18:59.711Z,987.91
2022-11-14T16:19:15.525Z,987.91
2022-11-14T16:19:35.146Z,987.92
2022-11-14T16:19:48.989Z,987.91
2022-11-14T16:20:04.682Z,987.92
2022-11-14T16:20:24.817Z,987.94
2022-11-14T16:20:38.926Z,987.94
2022-11-14T16:21:12.586Z,987.93